createdAt,value
2018-04-29T00:01:55.478Z,96383.09
2018-04-29T00:04:22.906Z,96386.31
2018-04-29T00:06:50.646Z,96388.45
2018-04-29T00:09:18.088Z,96386.13
2018-04-29T00:11:45.551Z,96385.16
2018-04-29T00:14:12.989Z,96384.89
2018-04-29T00:16:40.445Z,96384.40
2018-04-29T00:19:07.886Z,96385.61
2018-04-29T00:21:35.345Z,96380.74
2018-04-29T00:24:02.752Z,96372.70
2018-04-29T00:26:30.205Z,96365.55
2018-04-29T00:28:57.695Z,96368.03
2018-04-29T00:31:25.167Z,96364.15
2018-04-29T00:33:52.747Z,96368.89
2018-04-29T00:36:20.190Z,96359.20
2018-04-29T00:38:47.678Z,96360.63
2018-04-29T00:41:15.118Z,96353.00
2018-04-29T00:43:42.571Z,96348.11
2018-04-29T00:46:10.346Z,96346.12
2018-04-29T00:48:37.808Z,96348.39
2018-04-29T00:51:05.259Z,96357.11
2018-04-29T00:53:33.084Z,96352.04
2018-04-29T00:56:00.541Z,96352.86
2018-04-29T00:58:27.966Z,96355.84
2018-04-29T01:00:55.378Z,96352.34
2018-04-29T01:03:22.843Z,96347.95
2018-04-29T01:05:50.277Z,96343.98
2018-04-29T01:08:17.719Z,96344.58
2018-04-29T01:10:45.167Z,96328.47
2018-04-29T01:13:12.648Z,96324.44
2018-04-29T01:15:40.141Z,96322.88
2018-04-29T01:18:07.572Z,96312.87
2018-04-29T01:20:35.004Z,96309.34
2018-04-29T01:23:02.427Z,96316.50
2018-04-29T01:25:29.838Z,96315.11
2018-04-29T01:27:57.261Z,96308.64
2018-04-29T01:30:24.663Z,96314.11
2018-04-29T01:32:52.140Z,96317.59
2018-04-29T01:35:19.631Z,96322.83
2018-04-29T01:37:47.033Z,96320.41
2018-04-29T01:40:14.500Z,96308.77
2018-04-29T01:42:41.937Z,96307.70
2018-04-29T01:45:09.397Z,96297.88
2018-04-29T01:47:37.384Z,96298.41
2018-04-29T01:50:04.828Z,96303.76
2018-04-29T01:52:32.291Z,96313.49
2018-04-29T01:54:59.830Z,96307.05
2018-04-29T01:57:27.246Z,96310.59
2018-04-29T01:59:54.703Z,96311.41
2018-04-29T02:02:22.168Z,96304.20
2018-04-29T02:04:49.567Z,96315.70
2018-04-29T02:07:17.029Z,96322.88
2018-04-29T02:09:44.565Z,96322.79
2018-04-29T02:12:12.264Z,96313.03
2018-04-29T02:14:39.686Z,96308.82
2018-04-29T02:17:07.085Z,96313.34
2018-04-29T02:19:34.652Z,96301.88
2018-04-29T02:22:02.731Z,96298.58
2018-04-29T02:24:30.281Z,96290.81
2018-04-29T02:26:57.834Z,96295.46
2018-04-29T02:29:25.295Z,96292.64
2018-04-29T02:31:52.797Z,96294.11
2018-04-29T02:34:20.291Z,96291.28
2018-04-29T02:36:47.737Z,96291.44
2018-04-29T02:39:15.220Z,96283.16
2018-04-29T02:41:42.630Z,96285.97
2018-04-29T02:44:10.122Z,96284.31
2018-04-29T02:46:37.551Z,96281.22
2018-04-29T02:49:04.948Z,96286.63
2018-04-29T02:51:32.352Z,96281.61
2018-04-29T02:54:00.614Z,96292.88
2018-04-29T02:56:28.432Z,96283.80
2018-04-29T02:58:55.847Z,96279.65
2018-04-29T03:01:23.381Z,96288.10
2018-04-29T03:03:50.849Z,96282.45
2018-04-29T03:06:18.337Z,96278.91
2018-04-29T03:08:45.805Z,96278.48
2018-04-29T03:11:13.211Z,96277.62
2018-04-29T03:13:40.642Z,96274.48
2018-04-29T03:16:08.199Z,96273.53
2018-04-29T03:18:35.646Z,96273.13
2018-04-29T03:21:03.069Z,96269.75
2018-04-29T03:23:30.610Z,96277.86
2018-04-29T03:25:58.145Z,96271.31
2018-04-29T03:28:25.954Z,96273.20
2018-04-29T03:30:53.365Z,96267.92
2018-04-29T03:33:20.787Z,96270.48
2018-04-29T03:35:48.217Z,96265.39
2018-04-29T03:38:15.723Z,96264.28
2018-04-29T03:40:43.155Z,96264.73
2018-04-29T03:43:10.555Z,96262.97
2018-04-29T03:45:38.246Z,96258.41
2018-04-29T03:48:05.669Z,96259.78
2018-04-29T03:50:33.148Z,96255.12
2018-04-29T03:53:00.547Z,96258.45
2018-04-29T03:55:27.991Z,96261.45
2018-04-29T03:58:07.180Z,96269.15
2018-04-29T04:04:00.226Z,96261.34
2018-04-29T04:06:27.725Z,96263.89
2018-04-29T04:08:55.136Z,96263.20
2018-04-29T04:11:22.644Z,96267.98
2018-04-29T04:13:50.117Z,96257.39
2018-04-29T04:16:17.920Z,96254.48
2018-04-29T04:18:45.360Z,96258.36
2018-04-29T04:21:12.844Z,96268.18
2018-04-29T04:23:40.326Z,96265.44
2018-04-29T04:26:07.722Z,96258.14
2018-04-29T04:28:35.181Z,96256.16
2018-04-29T04:31:02.602Z,96267.00
2018-04-29T04:33:30.079Z,96265.44
2018-04-29T04:35:57.540Z,96256.66
2018-04-29T04:38:24.965Z,96255.16
2018-04-29T04:40:52.363Z,96245.84
2018-04-29T04:43:20.414Z,96250.00
2018-04-29T04:45:47.893Z,96257.42
2018-04-29T04:48:15.351Z,96253.11
2018-04-29T04:50:43.385Z,96258.80
2018-04-29T04:53:10.775Z,96250.02
2018-04-29T04:55:38.209Z,96256.08
2018-04-29T04:58:05.737Z,96259.84
2018-04-29T05:00:33.146Z,96257.21
2018-04-29T05:03:00.560Z,96254.33
2018-04-29T05:05:28.071Z,96258.16
2018-04-29T05:07:55.468Z,96251.58
2018-04-29T05:10:22.889Z,96255.17
2018-04-29T05:12:50.291Z,96247.50
2018-04-29T05:15:17.781Z,96247.38
2018-04-29T05:17:45.268Z,96258.81
2018-04-29T05:20:12.676Z,96258.72
2018-04-29T05:22:40.119Z,96257.28
2018-04-29T05:25:07.536Z,96257.09
2018-04-29T05:27:34.999Z,96255.17
2018-04-29T05:30:02.463Z,96260.56
2018-04-29T05:32:29.913Z,96265.86
2018-04-29T05:34:57.392Z,96264.77
2018-04-29T05:37:24.807Z,96269.34
2018-04-29T05:39:52.289Z,96264.78
2018-04-29T05:42:19.767Z,96260.63
2018-04-29T05:44:47.585Z,96272.17
2018-04-29T05:47:15.035Z,96267.17
2018-04-29T05:49:42.480Z,96267.98
2018-04-29T05:52:09.919Z,96271.01
2018-04-29T05:54:37.356Z,96271.80
2018-04-29T05:57:04.820Z,96271.52
2018-04-29T05:59:32.248Z,96265.49
2018-04-29T06:01:59.823Z,96264.34
2018-04-29T06:04:27.603Z,96261.47
2018-04-29T06:06:55.043Z,96268.11
2018-04-29T06:09:22.483Z,96265.38
2018-04-29T06:11:49.931Z,96263.43
2018-04-29T06:14:17.376Z,96263.81
2018-04-29T06:16:44.801Z,96255.05
2018-04-29T06:19:12.256Z,96253.55
2018-04-29T06:21:39.701Z,96249.02
2018-04-29T06:24:07.164Z,96253.98
2018-04-29T06:26:34.641Z,96247.12
2018-04-29T06:29:02.124Z,96246.19
2018-04-29T06:31:29.516Z,96242.89
2018-04-29T06:33:56.941Z,96240.21
2018-04-29T06:36:24.414Z,96236.09
2018-04-29T06:38:51.893Z,96237.66
2018-04-29T06:41:19.371Z,96237.66
2018-04-29T06:43:46.757Z,96237.12
2018-04-29T06:46:14.365Z,96238.58
2018-04-29T06:48:41.764Z,96240.97
2018-04-29T06:51:09.280Z,96240.50
2018-04-29T06:53:36.778Z,96241.24
2018-04-29T06:56:04.214Z,96233.74
2018-04-29T06:58:31.688Z,96227.91
2018-04-29T07:00:59.089Z,96228.54
2018-04-29T07:03:26.560Z,96228.70
2018-04-29T07:05:54.036Z,96219.98
2018-04-29T07:08:21.518Z,96227.39
2018-04-29T07:10:48.977Z,96226.95
2018-04-29T07:13:16.432Z,96219.17
2018-04-29T07:15:43.863Z,96219.42
2018-04-29T07:18:11.270Z,96214.41
2018-04-29T07:20:38.672Z,96214.23
2018-04-29T07:23:06.099Z,96204.65
2018-04-29T07:25:33.669Z,96211.99
2018-04-29T07:28:01.081Z,96204.48
2018-04-29T07:30:28.626Z,96213.66
2018-04-29T07:32:56.084Z,96213.41
2018-04-29T07:35:23.509Z,96209.35
2018-04-29T07:37:50.995Z,96209.59
2018-04-29T07:40:18.456Z,96207.52
2018-04-29T07:42:45.913Z,96216.42
2018-04-29T07:45:13.319Z,96214.27
2018-04-29T07:47:40.841Z,96204.14
2018-04-29T07:50:08.267Z,96205.19
2018-04-29T07:52:35.970Z,96204.14
2018-04-29T07:55:03.403Z,96192.59
2018-04-29T07:57:30.801Z,96190.63
2018-04-29T07:59:58.282Z,96184.33
2018-04-29T08:02:25.700Z,96190.91
2018-04-29T08:04:53.100Z,96190.65
2018-04-29T08:07:20.602Z,96187.06
2018-04-29T08:09:48.072Z,96197.59
2018-04-29T08:12:15.549Z,96194.88
2018-04-29T08:14:43.037Z,96200.34
2018-04-29T08:17:10.507Z,96204.30
2018-04-29T08:19:37.991Z,96197.57
2018-04-29T08:22:05.428Z,96186.50
2018-04-29T08:24:33.178Z,96185.30
2018-04-29T08:27:00.632Z,96186.28
2018-04-29T08:29:28.109Z,96173.92
2018-04-29T08:31:55.690Z,96172.01
2018-04-29T08:34:23.147Z,96167.70
2018-04-29T08:36:50.556Z,96168.92
2018-04-29T08:39:18.004Z,96167.08
2018-04-29T08:41:45.493Z,96170.47
2018-04-29T08:44:13.295Z,96159.30
2018-04-29T08:46:40.715Z,96169.61
2018-04-29T08:49:08.177Z,96167.06
2018-04-29T08:51:35.651Z,96170.38
2018-04-29T08:54:03.116Z,96174.77
2018-04-29T08:56:30.627Z,96167.09
2018-04-29T08:58:58.302Z,96173.02
2018-04-29T09:01:25.785Z,96167.92
2018-04-29T09:03:53.315Z,96169.29
2018-04-29T09:06:20.667Z,96149.44
2018-04-29T09:08:48.182Z,96153.63
2018-04-29T09:11:15.615Z,96155.64
2018-04-29T09:13:43.084Z,96152.34
2018-04-29T09:16:10.521Z,96149.10
2018-04-29T09:18:37.939Z,96150.44
2018-04-29T09:21:05.419Z,96151.29
2018-04-29T09:23:33.510Z,96148.02
2018-04-29T09:26:00.971Z,96142.23
2018-04-29T09:28:28.595Z,96143.67
2018-04-29T09:30:56.025Z,96145.13
2018-04-29T09:33:23.478Z,96136.81
2018-04-29T09:35:50.944Z,96138.44
2018-04-29T09:38:18.455Z,96124.91
2018-04-29T09:40:45.900Z,96117.34
2018-04-29T09:43:13.365Z,96115.27
2018-04-29T09:45:40.766Z,96117.81
2018-04-29T09:48:08.237Z,96114.80
2018-04-29T09:50:35.672Z,96103.47
2018-04-29T09:53:03.133Z,96096.38
2018-04-29T09:55:30.736Z,96101.09
2018-04-29T09:57:58.194Z,96097.39
2018-04-29T10:00:26.606Z,96091.77
2018-04-29T10:02:54.053Z,96089.33
2018-04-29T10:05:21.679Z,96087.96
2018-04-29T10:07:49.101Z,96081.90
2018-04-29T10:10:16.545Z,96079.17
2018-04-29T10:12:44.212Z,96076.45
2018-04-29T10:15:11.687Z,96072.36
2018-04-29T10:17:39.196Z,96066.94
2018-04-29T10:20:06.661Z,96068.84
2018-04-29T10:22:34.074Z,96069.06
2018-04-29T10:25:01.897Z,96060.34
2018-04-29T10:27:29.296Z,96059.38
2018-04-29T10:29:56.864Z,96055.27
2018-04-29T10:32:24.510Z,96045.63
2018-04-29T10:34:51.885Z,96032.97
2018-04-29T10:37:19.353Z,96028.14
2018-04-29T10:39:46.951Z,96026.38
2018-04-29T10:42:14.393Z,96022.68
2018-04-29T10:44:41.852Z,96012.80
2018-04-29T10:47:09.254Z,96010.02
2018-04-29T10:49:36.688Z,96001.98
2018-04-29T10:52:03.677Z,95998.70
2018-04-29T10:54:31.112Z,95994.63
2018-04-29T10:56:58.607Z,95989.22
2018-04-29T10:59:26.271Z,95989.38
2018-04-29T11:01:53.726Z,95990.28
2018-04-29T11:04:21.300Z,95984.58
2018-04-29T11:06:49.604Z,95973.73
2018-04-29T11:09:17.097Z,95962.11
2018-04-29T11:11:44.643Z,95959.46
2018-04-29T11:14:12.159Z,95955.53
2018-04-29T11:16:39.663Z,95948.82
2018-04-29T11:19:07.124Z,95939.02
2018-04-29T11:21:34.580Z,95943.73
2018-04-29T11:24:02.526Z,95930.80
2018-04-29T11:26:29.947Z,95931.52
2018-04-29T11:28:57.453Z,95917.69
2018-04-29T11:31:24.923Z,95917.28
2018-04-29T11:33:52.403Z,95916.19
2018-04-29T11:36:19.838Z,95910.27
2018-04-29T11:38:47.940Z,95907.13
2018-04-29T11:41:15.372Z,95893.34
2018-04-29T11:43:42.398Z,95885.49
2018-04-29T11:46:09.977Z,95883.75
2018-04-29T11:48:37.492Z,95865.53
2018-04-29T11:51:04.928Z,95861.69
2018-04-29T11:53:32.371Z,95854.64
2018-04-29T11:55:59.908Z,95851.20
2018-04-29T11:58:27.432Z,95844.52
2018-04-29T12:00:54.845Z,95850.17
2018-04-29T12:03:22.326Z,95839.53
2018-04-29T12:05:49.781Z,95818.85
2018-04-29T12:08:17.236Z,95822.42
2018-04-29T12:10:44.710Z,95822.99
2018-04-29T12:13:12.125Z,95803.92
2018-04-29T12:15:39.696Z,95802.25
2018-04-29T12:18:07.197Z,95800.72
2018-04-29T12:20:34.612Z,95793.27
2018-04-29T12:23:02.082Z,95789.58
2018-04-29T12:25:29.475Z,95782.94
2018-04-29T12:27:56.946Z,95771.66
2018-04-29T12:30:24.426Z,95774.98
2018-04-29T12:32:53.084Z,95776.05
2018-04-29T12:35:20.633Z,95760.34
2018-04-29T12:37:48.073Z,95770.86
2018-04-29T12:40:15.510Z,95765.80
2018-04-29T12:42:42.980Z,95767.96
2018-04-29T12:45:10.418Z,95756.97
2018-04-29T12:47:37.869Z,95754.94
2018-04-29T12:50:05.373Z,95753.68
2018-04-29T12:52:32.800Z,95752.20
2018-04-29T12:55:00.227Z,95750.61
2018-04-29T12:57:27.632Z,95747.42
2018-04-29T12:59:55.064Z,95736.94
2018-04-29T13:02:22.492Z,95733.33
2018-04-29T13:04:49.972Z,95719.97
2018-04-29T13:07:17.398Z,95714.20
2018-04-29T13:09:44.869Z,95714.59
2018-04-29T13:12:12.292Z,95716.52
2018-04-29T13:14:39.749Z,95710.97
2018-04-29T13:17:07.325Z,95703.23
2018-04-29T13:19:34.753Z,95702.63
2018-04-29T13:22:02.196Z,95698.64
2018-04-29T13:24:29.656Z,95698.70
2018-04-29T13:26:57.108Z,95698.30
2018-04-29T13:29:24.572Z,95704.23
2018-04-29T13:31:52.012Z,95690.46
2018-04-29T13:34:19.495Z,95682.36
2018-04-29T13:36:47.104Z,95675.59
2018-04-29T13:39:14.571Z,95675.70
2018-04-29T13:41:42.051Z,95666.89
2018-04-29T13:44:09.515Z,95674.91
2018-04-29T13:46:36.998Z,95671.33
2018-04-29T13:49:04.392Z,95669.03
2018-04-29T13:51:31.846Z,95668.28
2018-04-29T13:53:59.292Z,95655.73
2018-04-29T13:56:26.687Z,95653.19
2018-04-29T13:58:54.215Z,95648.00
2018-04-29T14:01:21.660Z,95646.47
2018-04-29T14:03:49.129Z,95649.22
2018-04-29T14:06:16.568Z,95649.97
2018-04-29T14:08:44.136Z,95648.30
2018-04-29T14:11:11.655Z,95638.39
2018-04-29T14:13:39.484Z,95623.56
2018-04-29T14:16:07.047Z,95615.42
2018-04-29T14:18:34.453Z,95611.58
2018-04-29T14:21:01.904Z,95610.98
2018-04-29T14:23:29.451Z,95605.98
2018-04-29T14:25:56.887Z,95607.89
2018-04-29T14:28:24.451Z,95606.34
2018-04-29T14:30:51.933Z,95603.81
2018-04-29T14:33:19.326Z,95601.34
2018-04-29T14:35:46.778Z,95594.41
2018-04-29T14:38:14.213Z,95594.77
2018-04-29T14:40:41.707Z,95588.80
2018-04-29T14:43:09.286Z,95587.92
2018-04-29T14:45:36.739Z,95589.20
2018-04-29T14:48:04.227Z,95586.89
2018-04-29T14:50:31.691Z,95593.91
2018-04-29T14:52:59.181Z,95591.90
2018-04-29T14:55:26.781Z,95593.98
2018-04-29T14:57:54.247Z,95589.38
2018-04-29T15:00:21.679Z,95590.20
2018-04-29T15:02:49.114Z,95592.94
2018-04-29T15:05:16.533Z,95583.20
2018-04-29T15:07:43.963Z,95583.52
2018-04-29T15:10:11.458Z,95577.67
2018-04-29T15:12:39.001Z,95561.38
2018-04-29T15:15:07.403Z,95566.48
2018-04-29T15:17:35.250Z,95565.70
2018-04-29T15:20:02.783Z,95566.61
2018-04-29T15:22:30.288Z,95573.98
2018-04-29T15:24:57.764Z,95572.00
2018-04-29T15:27:25.181Z,95576.62
2018-04-29T15:29:52.627Z,95572.56
2018-04-29T15:32:20.092Z,95562.55
2018-04-29T15:34:47.523Z,95555.98
2018-04-29T15:37:14.987Z,95563.23
2018-04-29T15:39:42.438Z,95554.23
2018-04-29T15:42:09.940Z,95557.49
2018-04-29T15:44:37.385Z,95557.73
2018-04-29T15:47:04.858Z,95552.46
2018-04-29T15:49:32.314Z,95553.27
2018-04-29T15:51:59.770Z,95550.83
2018-04-29T15:54:27.380Z,95545.05
2018-04-29T15:56:54.790Z,95534.07
2018-04-29T15:59:22.262Z,95534.67
2018-04-29T16:01:50.003Z,95534.28
2018-04-29T16:04:17.431Z,95537.57
2018-04-29T16:06:44.875Z,95535.70
2018-04-29T16:09:12.326Z,95540.20
2018-04-29T16:11:39.796Z,95533.53
2018-04-29T16:14:07.330Z,95524.44
2018-04-29T16:16:34.815Z,95524.87
2018-04-29T16:19:02.285Z,95516.78
2018-04-29T16:21:30.444Z,95514.87
2018-04-29T16:23:57.908Z,95507.50
2018-04-29T16:26:25.284Z,95496.48
2018-04-29T16:28:52.720Z,95499.97
2018-04-29T16:31:20.216Z,95499.67
2018-04-29T16:33:47.718Z,95496.81
2018-04-29T16:36:15.152Z,95480.05
2018-04-29T16:38:42.588Z,95474.37
2018-04-29T16:41:09.985Z,95462.86
2018-04-29T16:43:37.514Z,95455.50
2018-04-29T16:46:05.555Z,95461.17
2018-04-29T16:48:33.004Z,95458.84
2018-04-29T16:51:00.481Z,95449.52
2018-04-29T16:53:28.635Z,95449.98
2018-04-29T16:55:56.077Z,95455.73
2018-04-29T16:58:23.487Z,95461.34
2018-04-29T17:00:50.961Z,95458.47
2018-04-29T17:03:18.647Z,95456.23
2018-04-29T17:05:46.124Z,95453.45
2018-04-29T17:08:13.577Z,95456.15
2018-04-29T17:10:40.994Z,95451.37
2018-04-29T17:13:09.308Z,95453.63
2018-04-29T17:15:36.772Z,95456.61
2018-04-29T17:18:04.186Z,95458.78
2018-04-29T17:20:31.702Z,95458.59
2018-04-29T17:22:59.291Z,95466.36
2018-04-29T17:25:26.744Z,95471.09
2018-04-29T17:27:54.251Z,95476.73
2018-04-29T17:30:21.715Z,95473.27
2018-04-29T17:32:49.159Z,95475.39
2018-04-29T17:35:16.554Z,95482.79
2018-04-29T17:37:43.966Z,95486.67
2018-04-29T17:40:11.440Z,95482.17
2018-04-29T17:42:39.077Z,95502.22
2018-04-29T17:45:06.512Z,95478.45
2018-04-29T17:47:33.957Z,95479.59
2018-04-29T17:50:01.410Z,95467.68
2018-04-29T17:52:28.799Z,95471.45
2018-04-29T17:54:56.222Z,95478.77
2018-04-29T17:57:23.701Z,95476.09
2018-04-29T17:59:51.095Z,95484.97
2018-04-29T18:02:18.617Z,95488.04
2018-04-29T18:04:46.067Z,95490.19
2018-04-29T18:07:13.554Z,95496.08
2018-04-29T18:09:40.981Z,95503.06
2018-04-29T18:12:08.443Z,95517.88
2018-04-29T18:14:35.842Z,95516.58
2018-04-29T18:17:03.276Z,95541.30
2018-04-29T18:19:30.733Z,95550.86
2018-04-29T18:21:58.345Z,95545.71
2018-04-29T18:24:25.924Z,95553.97
2018-04-29T18:26:53.432Z,95561.89
2018-04-29T18:29:20.837Z,95556.09
2018-04-29T18:31:48.373Z,95545.66
2018-04-29T18:34:15.832Z,95556.56
2018-04-29T18:36:43.309Z,95551.20
2018-04-29T18:39:10.729Z,95578.88
2018-04-29T18:41:38.206Z,95591.08
2018-04-29T18:44:05.644Z,95631.88
2018-04-29T18:46:33.102Z,95661.66
2018-04-29T18:49:00.507Z,95668.74
2018-04-29T18:51:28.104Z,95683.86
2018-04-29T18:53:55.481Z,95678.44
2018-04-29T18:56:22.938Z,95690.57
2018-04-29T18:58:50.391Z,95690.04
2018-04-29T19:01:17.868Z,95692.83
2018-04-29T19:03:45.301Z,95716.48
2018-04-29T19:06:12.781Z,95717.03
2018-04-29T19:08:40.224Z,95724.59
2018-04-29T19:11:07.622Z,95732.03
2018-04-29T19:13:35.327Z,95762.28
2018-04-29T19:16:02.727Z,95756.91
2018-04-29T19:18:30.230Z,95764.05
2018-04-29T19:20:57.704Z,95769.69
2018-04-29T19:23:25.102Z,95777.82
2018-04-29T19:25:52.519Z,95798.26
2018-04-29T19:28:19.969Z,95808.34
2018-04-29T19:30:47.427Z,95821.74
2018-04-29T19:33:14.879Z,95860.36
2018-04-29T19:35:42.300Z,95857.80
2018-04-29T19:38:10.369Z,95865.78
2018-04-29T19:40:37.821Z,95872.38
2018-04-29T19:43:05.284Z,95869.98
2018-04-29T19:45:32.689Z,95879.78
2018-04-29T19:48:00.145Z,95915.90
2018-04-29T19:50:27.584Z,95919.81
2018-04-29T19:52:55.080Z,95929.09
2018-04-29T19:55:22.581Z,95953.58
2018-04-29T19:57:50.004Z,95975.00
2018-04-29T20:00:18.104Z,96000.56
2018-04-29T20:02:45.609Z,96000.78
2018-04-29T20:05:13.054Z,96014.27
2018-04-29T20:07:40.493Z,96004.92
2018-04-29T20:10:07.893Z,96024.59
2018-04-29T20:12:35.472Z,96019.92
2018-04-29T20:15:02.893Z,96019.92
2018-04-29T20:17:30.320Z,96016.78
2018-04-29T20:19:57.759Z,96002.67
2018-04-29T20:22:25.217Z,96011.20
2018-04-29T20:24:52.614Z,95998.56
2018-04-29T20:27:20.017Z,96008.27
2018-04-29T20:29:47.494Z,96037.09
2018-04-29T20:32:26.874Z,96011.06
2018-04-29T20:34:54.359Z,96029.22
2018-04-29T20:37:21.792Z,96043.72
2018-04-29T20:39:49.223Z,96033.55
2018-04-29T20:42:16.652Z,96041.66
2018-04-29T20:44:44.051Z,96036.79
2018-04-29T20:47:11.490Z,96042.72
2018-04-29T20:49:38.912Z,96057.38
2018-04-29T20:52:06.343Z,96053.74
2018-04-29T20:54:33.807Z,96047.31
2018-04-29T20:57:01.331Z,96057.12
2018-04-29T20:59:28.814Z,96039.16
2018-04-29T21:01:56.281Z,96054.67
2018-04-29T21:04:23.734Z,96044.98
2018-04-29T21:06:51.127Z,96048.17
2018-04-29T21:09:18.674Z,96047.27
2018-04-29T21:11:46.099Z,96056.11
2018-04-29T21:14:13.551Z,96055.83
2018-04-29T21:16:41.292Z,96043.78
2018-04-29T21:19:08.760Z,96036.34
2018-04-29T21:21:36.236Z,96034.14
2018-04-29T21:24:03.933Z,96031.83
2018-04-29T21:26:31.364Z,96023.48
2018-04-29T21:28:58.917Z,96010.66
2018-04-29T21:31:26.342Z,95987.75
2018-04-29T21:33:53.744Z,95994.13
2018-04-29T21:36:22.021Z,96013.28
2018-04-29T21:38:50.128Z,96019.80
2018-04-29T21:41:17.613Z,96017.19
2018-04-29T21:43:45.036Z,96009.50
2018-04-29T21:46:12.473Z,96001.07
2018-04-29T21:48:39.955Z,95999.51
2018-04-29T21:51:07.385Z,96001.16
2018-04-29T21:53:34.834Z,95973.45
2018-04-29T21:56:02.463Z,95983.98
2018-04-29T21:58:29.935Z,95985.38
2018-04-29T22:00:57.410Z,95980.52
2018-04-29T22:03:24.811Z,95985.33
2018-04-29T22:05:52.240Z,95995.64
2018-04-29T22:08:19.678Z,95987.08
2018-04-29T22:10:47.180Z,96009.09
2018-04-29T22:13:14.666Z,96022.91
2018-04-29T22:15:42.063Z,96010.07
2018-04-29T22:18:09.547Z,96003.70
2018-04-29T22:20:36.974Z,95998.04
2018-04-29T22:23:04.364Z,95987.81
2018-04-29T22:25:31.799Z,95996.14
2018-04-29T22:27:59.444Z,95998.76
2018-04-29T22:30:26.872Z,96011.91
2018-04-29T22:32:54.297Z,96019.55
2018-04-29T22:35:21.717Z,96022.19
2018-04-29T22:37:49.239Z,96031.10
2018-04-29T22:40:16.709Z,96024.86
2018-04-29T22:42:44.142Z,96024.66
2018-04-29T22:45:11.635Z,96034.33
2018-04-29T22:47:39.063Z,96047.44
2018-04-29T22:50:06.443Z,96039.66
2018-04-29T22:52:33.904Z,96062.20
2018-04-29T22:55:01.338Z,96062.90
2018-04-29T22:57:28.728Z,96068.69
2018-04-29T22:59:56.196Z,96063.04
2018-04-29T23:02:23.639Z,96064.23
2018-04-29T23:04:51.040Z,96046.63
2018-04-29T23:07:18.502Z,96050.70
2018-04-29T23:09:45.927Z,96049.38
2018-04-29T23:12:13.366Z,96045.62
2018-04-29T23:14:40.839Z,96044.47
2018-04-29T23:17:08.360Z,96056.25
2018-04-29T23:19:35.850Z,96055.14
2018-04-29T23:22:03.316Z,96067.75
2018-04-29T23:24:30.715Z,96074.34
2018-04-29T23:26:58.118Z,96075.94
2018-04-29T23:29:25.544Z,96070.82
2018-04-29T23:31:53.005Z,96082.66
2018-04-29T23:34:20.502Z,96074.38
2018-04-29T23:36:47.900Z,96069.80
2018-04-29T23:39:15.323Z,96076.27
2018-04-29T23:41:42.835Z,96070.32
2018-04-29T23:44:10.290Z,96072.27
2018-04-29T23:46:37.695Z,96071.23
2018-04-29T23:49:05.189Z,96085.41
2018-04-29T23:51:32.662Z,96080.02
2018-04-29T23:54:00.117Z,96068.80
2018-04-29T23:56:27.550Z,96074.95
2018-04-29T23:58:54.954Z,96076.97
